FW0596 Weather Reports


Display with metric or nautical units.
time (UTC)temp
F
wind
direction
speed
MPH
gust
MPH
rain 1hr
in
rain 24hr
in
rain mn
in
humidity
%
barometer
mb
20260510160051 75 201 0.0 0.0 0.00 0.00 0.00 62 1012.1
20260510154534 74 213 0.0 0.0 0.00 0.00 0.00 64 1012.3
20260510153034 73 200 0.0 0.0 0.00 0.00 0.00 66 1012.3
20260510151528 71 97 0.0 0.0 0.00 0.00 0.00 73 1012.2
20260510150027 69 92 0.0 0.0 0.00 0.00 0.00 74 1012.1
20260510144536 69 103 0.0 0.0 0.00 0.00 0.00 74 1011.8
20260510143040 71 114 0.0 0.0 0.00 0.00 0.00 72 1011.6
20260510141534 70 107 0.0 0.0 0.00 0.00 0.00 72 1011.5
20260510140029 70 102 0.0 0.0 0.00 0.00 0.00 72 1011.7
20260510134524 70 96 0.0 0.0 0.00 0.00 0.00 72 1011.7
20260510133031 69 178 0.0 0.0 0.00 0.00 0.00 70 1011.7
20260510131516 67 276 0.0 0.0 0.00 0.00 0.00 75 1011.9
20260510130012 64 271 0.0 0.0 0.00 0.00 0.00 79 1012.0
20260510124507 63 269 0.0 0.0 0.00 0.00 0.00 82 1012.0
20260510123007 61 350 0.0 0.0 0.00 0.00 0.00 84 1012.0
20260510121600 60 350 0.0 0.0 0.00 0.00 0.00 87 1011.8
20260510120056 58 349 0.0 0.0 0.00 0.00 0.00 89 1011.7
20260510114553 57 70 0.0 0.0 0.00 0.00 0.00 93 1011.7
20260510113056 56 70 0.0 0.0 0.00 0.00 0.00 94 1011.4
20260510111555 55 70 0.0 0.0 0.00 0.00 0.00 94 1011.1
20260510110046 53 70 0.0 0.0 0.00 0.00 0.00 94 1010.6
20260510104550 52 70 0.0 0.0 0.00 0.00 0.00 93 1010.4
20260510103048 52 70 0.0 0.0 0.00 0.00 0.00 93 1010.2
20260510101541 53 70 0.0 0.0 0.00 0.00 0.00 93 1010.1
20260510100040 53 70 0.0 0.0 0.00 0.00 0.00 93 1010.1
20260510094541 53 70 0.0 0.0 0.00 0.00 0.00 93 1010.1
20260510093043 53 70 0.0 0.0 0.00 0.00 0.00 93 1010.1
20260510091536 53 70 0.0 0.0 0.00 0.00 0.00 93 1009.9
20260510090035 53 70 0.0 0.0 0.00 0.00 0.00 93 1009.8
20260510084533 53 70 0.0 0.0 0.00 0.00 0.00 93 1009.6
20260510083037 53 70 0.0 0.0 0.00 0.00 0.00 92 1009.5
20260510081539 53 70 0.0 0.0 0.00 0.00 0.00 92 1009.2
20260510080029 54 70 0.0 0.0 0.00 0.00 0.00 92 1009.0
20260510074526 53 70 0.0 0.0 0.00 0.00 0.00 92 1008.9
20260510073025 54 70 0.0 0.0 0.00 0.00 0.00 92 1008.7
20260510071522 54 70 0.0 0.0 0.00 0.00 0.00 92 1008.7
20260510070024 54 70 0.0 0.0 0.00 0.00 0.00 92 1008.7
20260510064532 54 70 0.0 0.0 0.00 0.00 0.00 92 1008.7
20260510063032 55 70 0.0 0.0 0.00 0.00 0.00 92 1008.7
20260510061521 55 70 0.0 0.0 0.00 0.00 0.00 91 1008.6
20260510060033 55 70 0.0 0.0 0.00 0.00 0.00 91 1008.3
20260510054519 55 70 0.0 0.0 0.00 0.00 0.00 91 1008.6
20260510053022 56 70 0.0 0.0 0.00 0.00 0.00 91 1008.6
20260510051520 56 70 0.0 0.0 0.00 0.00 0.00 90 1008.7
20260510050015 56 70 0.0 0.0 0.00 0.00 0.00 90 1008.7
20260510044527 57 70 0.0 0.0 0.00 0.00 0.00 90 1008.8
20260510043009 57 70 0.0 0.0 0.00 0.00 0.00 90 1008.8
20260510041506 57 70 0.0 0.0 0.00 0.00 0.00 89 1008.7
20260510040004 57 70 0.0 0.0 0.00 0.00 0.00 88 1008.6
20260510034502 58 70 0.0 0.0 0.00 0.00 0.00 88 1008.6
20260510033001 58 70 0.0 0.0 0.00 0.00 0.00 87 1008.5
20260510031600 59 70 0.0 0.0 0.00 0.00 0.00 87 1008.5
20260510030112 59 70 0.0 0.0 0.00 0.00 0.00 87 1008.4
20260510024559 59 70 0.0 0.0 0.00 0.00 0.00 86 1008.4
20260510023058 59 70 0.0 0.0 0.00 0.00 0.00 86 1008.4
20260510021557 60 70 0.0 0.0 0.00 0.00 0.00 86 1008.4
20260510020057 60 70 0.0 0.0 0.00 0.00 0.00 85 1008.3
20260510014602 60 70 0.0 0.0 0.00 0.00 0.00 84 1008.2
20260510013057 61 70 0.0 0.0 0.00 0.00 0.00 83 1008.0
20260510011555 61 70 0.0 0.0 0.00 0.00 0.00 83 1007.9
20260510010054 62 70 0.0 0.0 0.00 0.00 0.00 82 1007.9
20260510004553 63 70 0.0 0.0 0.00 0.00 0.00 81 1007.7
20260510003101 63 70 0.0 0.0 0.00 0.00 0.00 81 1007.6
20260510001555 64 70 0.0 0.0 0.00 0.00 0.00 81 1007.5
20260510000056 64 70 0.0 0.0 0.00 0.00 0.00 80 1007.4
20260509234557 65 70 0.0 0.0 0.00 0.00 0.00 79 1007.2
20260509233059 66 69 0.0 0.0 0.00 0.00 0.00 78 1007.2
20260509231553 67 109 0.0 0.0 0.00 0.00 0.00 76 1007.2
20260509230050 67 136 0.0 0.0 0.00 0.00 0.00 74 1007.1
20260509224549 68 200 0.0 0.0 0.00 0.00 0.00 71 1007.0
20260509223056 70 192 0.0 0.0 0.00 0.00 0.00 69 1007.2
20260509221548 70 105 0.0 0.0 0.00 0.00 0.00 69 1007.2
20260509220048 70 198 0.0 0.0 0.00 0.00 0.00 66 1007.1
20260509214549 71 197 0.0 0.0 0.00 0.00 0.00 61 1007.0
20260509213049 72 200 0.0 0.0 0.00 0.00 0.00 59 1007.0
20260509211546 71 196 1.0 0.0 0.00 0.00 0.00 62 1006.7
20260509210046 71 200 0.0 0.0 0.00 0.00 0.00 64 1006.7
20260509204545 70 198 0.0 0.0 0.00 0.00 0.00 65 1006.8
20260509203044 69 200 0.0 0.0 0.00 0.00 0.00 68 1006.9
20260509201553 69 197 0.0 0.0 0.00 0.00 0.00 69 1007.3
20260509200051 69 205 1.0 0.0 0.00 0.00 0.00 67 1007.4
20260509194539 69 175 1.0 0.0 0.00 0.00 0.00 68 1007.5
20260509193054 68 198 0.0 0.0 0.00 0.00 0.00 70 1007.5
20260509191537 66 200 0.0 0.0 0.00 0.00 0.00 75 1007.6
20260509190036 66 200 0.0 0.0 0.00 0.00 0.00 77 1008.3
20260509184541 68 200 0.0 0.0 0.00 0.00 0.00 70 1008.5
20260509183036 71 225 0.0 0.0 0.00 0.00 0.00 55 1008.2
20260509181530 71 255 0.0 0.0 0.00 0.00 0.00 56 1008.5
20260509180031 71 221 0.0 0.0 0.00 0.00 0.00 56 1008.7
20260509174529 71 5 0.0 0.0 0.00 0.00 0.00 54 1008.7
20260509173028 71 253 0.0 0.0 0.00 0.00 0.00 53 1008.6
20260509171539 71 202 1.0 0.0 0.00 0.00 0.00 53 1008.8
20260509170023 69 337 0.0 0.0 0.00 0.00 0.00 60 1008.7
20260509164523 69 194 1.0 0.0 0.00 0.00 0.00 64 1008.8
20260509163022 70 172 1.0 0.0 0.00 0.00 0.00 62 1008.8
20260509161526 70 208 0.0 0.0 0.00 0.00 0.00 63 1009.0